This is the latest recevied weather packets stored in our database for station/object E22ZMG-1. If no packets are shown the sender has not sent any weather packets the latest 1 day(s).
| Time | Temp. | Humidity | Pressure | Rain* | Wind** | Luminosity | Snow |
|---|---|---|---|---|---|---|---|
| 1778066636 | 39.44° C | 41% | 970 hPa | - | 0 m/s | 0 W/m² | - |
| 1778066012 | 39.44° C | 41% | 970 hPa | - | 0 m/s | 0 W/m² | - |
| 1778065387 | 38.89° C | 41% | 970 hPa | - | 0 m/s | 0 W/m² | - |
| 1778064762 | 40° C | 41% | 970 hPa | - | 0 m/s | 0 W/m² | - |
| 1778064137 | 39.44° C | 41% | 970 hPa | - | 0 m/s | 0 W/m² | - |
| 1778063511 | 39.44° C | 41% | 970 hPa | - | 0 m/s | 0 W/m² | - |
| 1778062886 | 38.89° C | 41% | 970 hPa | - | 0 m/s | 0 W/m² | - |
| 1778062261 | 38.89° C | 41% | 970 hPa | - | 0 m/s | 0 W/m² | - |
| 1778061636 | 38.33° C | 42% | 970 hPa | - | 0 m/s | 0 W/m² | - |
| 1778061011 | 37.78° C | 43% | 970 hPa | - | 0 m/s | 0 W/m² | - |
| 1778060386 | 36.67° C | 47% | 970 hPa | - | 0 m/s | 0 W/m² | - |
| 1778059761 | 37.78° C | 44% | 970 hPa | - | 0 m/s | 0 W/m² | - |
| 1778059136 | 38.33° C | 43% | 970 hPa | - | 0 m/s | 0 W/m² | - |
| 1778058511 | 37.78° C | 45% | 970 hPa | - | 0 m/s | 0 W/m² | - |
| 1778057889 | 37.78° C | 44% | 970 hPa | - | 0 m/s | 0 W/m² | - |
| 1778057260 | 37.22° C | 46% | 971 hPa | - | 0 m/s | 0 W/m² | - |
| 1778056635 | 37.78° C | 42% | 971 hPa | - | 0 m/s | 0 W/m² | - |
| 1778056010 | 37.78° C | 42% | 971 hPa | - | 0 m/s | 0 W/m² | - |
| 1778055386 | 37.78° C | 43% | 971 hPa | - | 0 m/s | 0 W/m² | - |
| 1778054762 | 39.44° C | 40% | 971 hPa | - | 0 m/s | 0 W/m² | - |
| 1778054136 | 40° C | 40% | 971 hPa | - | 0 m/s | 0 W/m² | - |
| 1778053510 | 39.44° C | 39% | 971 hPa | - | 0 m/s | 0 W/m² | - |
| 1778052885 | 38.89° C | 43% | 971 hPa | - | 0 m/s | 0 W/m² | - |
| 1778052259 | 37.78° C | 44% | 971 hPa | - | 0 m/s | 0 W/m² | - |
| 1778051634 | 38.89° C | 41% | 972 hPa | - | 0 m/s | 0 W/m² | - |
* Rain since midnight (hover to see other rain measurements)
** Current wind speed in m/s (hover to see current wind gust speed)